Khanewal Weather



Khanewal's Current Weather

Temprature 37.9o broken clouds

broken clouds

Rain: 0 %

Min Temprature37.9o
Max Temprature37.9o
Humidity30
Wind Speed2.34 m/h
Sun Rise05:25:40
Sun Set19:11:33
Current Time: 24-Jul-2021 16:13:17
Lat/Lon: 30.3, 71.9333




Khanewal's Geo Location



Khanewal's Weather Forecast

Time Overall Temp Min Temp Max Temp Humidity Wind Speed Rain
24-Jul-2021 (Sat)
17:00:00 broken clouds 37.900 37.900 39.650 32 3.46 m/h 0 %
20:00:00 broken clouds 37.840 37.710 37.840 34 2.17 m/h 0 %
23:00:00 broken clouds 36.800 36.250 36.800 39 3.61 m/h 0 %
25-Jul-2021 (Sun)
02:00:00 clear sky 35.140 35.140 35.140 46 2.85 m/h 0 %
05:00:00 clear sky 34.390 34.390 34.390 49 2.66 m/h 0 %
08:00:00 clear sky 38.020 38.020 38.020 38 3.18 m/h 0 %
11:00:00 scattered clouds 41.770 41.770 41.770 29 3.09 m/h 0 %
14:00:00 clear sky 44.210 44.210 44.210 24 2.86 m/h 0 %
17:00:00 clear sky 44.840 44.840 44.840 22 3.33 m/h 0 %
20:00:00 scattered clouds 41.660 41.660 41.660 26 4.04 m/h 0 %
23:00:00 scattered clouds 39.700 39.700 39.700 30 4.9 m/h 0 %
26-Jul-2021 (Mon)
02:00:00 clear sky 37.130 37.130 37.130 39 6.82 m/h 0 %
05:00:00 few clouds 35.760 35.760 35.760 43 6.22 m/h 0 %
08:00:00 scattered clouds 37.060 37.060 37.060 41 7.28 m/h 0 %
11:00:00 few clouds 42.200 42.200 42.200 29 6.76 m/h 0 %
14:00:00 overcast clouds 44.040 44.040 44.040 25 6.06 m/h 0 %
17:00:00 overcast clouds 42.830 42.830 42.830 27 7.52 m/h 0 %
20:00:00 overcast clouds 39.810 39.810 39.810 32 6.73 m/h 0 %
23:00:00 overcast clouds 37.490 37.490 37.490 38 8.25 m/h 0 %
27-Jul-2021 (Tue)
02:00:00 broken clouds 35.520 35.520 35.520 44 8.3 m/h 0 %
05:00:00 broken clouds 32.220 32.220 32.220 56 8.42 m/h 0 %
08:00:00 overcast clouds 32.640 32.640 32.640 57 8.19 m/h 0 %
11:00:00 overcast clouds 37.220 37.220 37.220 42 6.85 m/h 0 %
14:00:00 overcast clouds 39.510 39.510 39.510 35 7.82 m/h 0 %
17:00:00 overcast clouds 38.610 38.610 38.610 36 7.54 m/h 0 %
20:00:00 broken clouds 35.690 35.690 35.690 44 6.92 m/h 0 %
23:00:00 overcast clouds 33.470 33.470 33.470 52 6.89 m/h 0 %
28-Jul-2021 (Wed)
02:00:00 broken clouds 31.990 31.990 31.990 58 6.42 m/h 0 %
05:00:00 scattered clouds 30.680 30.680 30.680 63 5.1 m/h 0 %
08:00:00 few clouds 32.670 32.670 32.670 56 5.94 m/h 0 %
11:00:00 few clouds 37.220 37.220 37.220 42 4.74 m/h 0 %
14:00:00 overcast clouds 39.720 39.720 39.720 35 5.29 m/h 0 %
17:00:00 overcast clouds 38.800 38.800 38.800 35 5.69 m/h 0 %
20:00:00 overcast clouds 36.420 36.420 36.420 41 5.1 m/h 0 %
23:00:00 overcast clouds 34.400 34.400 34.400 47 6.04 m/h 0 %
29-Jul-2021 (Thu)
02:00:00 light rain 32.420 32.420 32.420 55 2.78 m/h 120 %
05:00:00 light rain 30.560 30.560 30.560 64 2.42 m/h 224 %
08:00:00 overcast clouds 33.260 33.260 33.260 54 2.41 m/h 0 %
11:00:00 overcast clouds 37.270 37.270 37.270 42 2.77 m/h 0 %
14:00:00 overcast clouds 40.240 40.240 40.240 34 2.35 m/h 0 %

Famous Cities (60)